Time;durP1;ratioP1;P1;durP2;ratioP2;P2;SDS_P1;SDS_P2;PMS_P1;PMS_P2;Temp;Humidity;BMP_temperature;BMP_pressure;BME280_temperature;BME280_humidity;BME280_pressure;Samples;Min_cycle;Max_cycle;Signal;HPM_P1;HPM_P2
2021/10/07 00:01:07;;;;;;;4.73;1.97;;;;;;;14.04;59.23;98649.03;8321884;28;20225;-89
2021/10/07 00:05:26;;;;;;;4.87;2.00;;;;;;;13.99;59.29;98644.94;8323358;28;20284;-89
2021/10/07 00:09:30;;;;;;;3.97;1.90;;;;;;;14.02;59.66;98647.44;8322928;28;20264;-89
2021/10/07 00:13:34;;;;;;;5.80;1.70;;;;;;;13.98;59.78;98651.94;8320197;28;20240;-88
2021/10/07 00:17:37;;;;;;;4.87;2.10;;;;;;;13.96;60.17;98645.13;8320588;28;20397;-89
2021/10/07 00:21:40;;;;;;;3.60;1.50;;;;;;;13.95;59.48;98639.03;8323894;28;20229;-88
2021/10/07 00:25:43;;;;;;;3.33;1.50;;;;;;;13.98;59.58;98651.94;8321893;28;20208;-89
2021/10/07 00:29:50;;;;;;;5.27;1.60;;;;;;;13.96;59.68;98652.94;8320391;28;20204;-89
2021/10/07 00:34:07;;;;;;;3.73;1.63;;;;;;;13.99;59.41;98660.56;8319837;28;20201;-88
2021/10/07 00:42:30;;;;;;;4.33;1.50;;;;;;;13.98;59.60;98651.09;8287388;28;20410;-89
2021/10/07 00:46:45;;;;;;;5.67;1.53;;;;;;;14.04;59.18;98666.41;8287304;28;20206;-89
2021/10/07 00:50:48;;;;;;;4.10;1.43;;;;;;;14.03;59.62;98659.50;8287110;28;20205;-90
2021/10/07 00:54:54;;;;;;;5.13;1.83;;;;;;;13.98;59.11;98651.09;8287423;28;20206;-91
2021/10/07 00:58:57;;;;;;;4.77;1.67;;;;;;;14.03;59.46;98662.13;8287082;28;20201;-90
2021/10/07 01:03:02;;;;;;;3.27;1.60;;;;;;;14.02;59.49;98657.84;8287044;28;20229;-90
2021/10/07 01:07:06;;;;;;;5.53;1.70;;;;;;;14.00;59.77;98664.88;8286602;28;20498;-90
2021/10/07 01:11:10;;;;;;;2.90;1.80;;;;;;;13.90;59.99;98664.47;8286719;28;20237;-89
2021/10/07 01:15:13;;;;;;;7.43;1.83;;;;;;;14.00;59.75;98649.25;8286542;28;20205;-89
2021/10/07 01:19:17;;;;;;;5.27;1.90;;;;;;;13.91;60.05;98658.34;8286104;28;20202;-88
2021/10/07 01:23:22;;;;;;;3.77;1.53;;;;;;;13.97;59.67;98665.00;8285708;28;20230;-87
2021/10/07 01:27:27;;;;;;;5.17;2.07;;;;;;;14.02;60.01;98665.66;8285411;28;20213;-88
2021/10/07 01:31:30;;;;;;;3.83;2.00;;;;;;;14.01;60.09;98663.94;8285536;28;20504;-87
2021/10/07 01:35:33;;;;;;;4.93;2.03;;;;;;;14.06;59.92;98670.63;8285188;28;20201;-87
2021/10/07 01:39:37;;;;;;;3.80;1.50;;;;;;;14.07;60.44;98668.91;8295077;28;20208;-88
2021/10/07 01:43:40;;;;;;;3.47;1.80;;;;;;;13.93;60.68;98673.91;8317568;28;20231;-88
2021/10/07 01:47:43;;;;;;;5.17;1.70;;;;;;;14.01;60.41;98677.84;8317802;28;20523;-88
2021/10/07 01:51:46;;;;;;;4.83;1.90;;;;;;;13.95;60.27;98670.28;8317429;28;20205;-88
2021/10/07 01:55:50;;;;;;;5.03;1.83;;;;;;;13.93;60.92;98671.28;8317367;28;20208;-88
2021/10/07 01:59:53;;;;;;;5.13;1.87;;;;;;;13.94;60.29;98680.81;8317375;28;20204;-88
2021/10/07 02:03:56;;;;;;;4.10;1.57;;;;;;;13.83;60.81;98676.91;8317534;28;20312;-87
2021/10/07 02:07:58;;;;;;;3.93;1.67;;;;;;;13.86;60.30;98679.41;8317630;28;20234;-88
2021/10/07 02:12:04;;;;;;;3.60;2.00;;;;;;;13.85;60.33;98682.91;8317144;28;20245;-88
2021/10/07 02:16:06;;;;;;;4.57;1.80;;;;;;;13.75;60.39;98680.81;8318494;28;20201;-88
2021/10/07 02:20:11;;;;;;;3.47;1.47;;;;;;;13.76;59.95;98692.91;8320263;28;20271;-88
2021/10/07 02:24:14;;;;;;;5.67;2.10;;;;;;;13.67;60.22;98705.41;8316627;28;20415;-88
2021/10/07 02:28:19;;;;;;;4.27;1.67;;;;;;;13.67;60.59;98708.03;8316800;28;20404;-88
2021/10/07 02:32:21;;;;;;;2.87;1.60;;;;;;;13.70;60.50;98709.63;8316763;28;20204;-88
2021/10/07 02:36:25;;;;;;;5.27;1.77;;;;;;;13.64;60.99;98713.34;8316865;28;20484;-89
2021/10/07 02:40:28;;;;;;;3.97;1.80;;;;;;;13.69;60.78;98716.59;8316429;28;20205;-89
2021/10/07 02:44:33;;;;;;;4.00;1.70;;;;;;;13.72;60.84;98712.16;8316787;28;20225;-88
2021/10/07 02:48:35;;;;;;;5.03;2.03;;;;;;;13.63;61.07;98726.44;8316288;28;20493;-86
2021/10/07 02:52:38;;;;;;;5.50;1.80;;;;;;;13.52;61.63;98726.06;8316220;28;20216;-87
2021/10/07 02:56:41;;;;;;;3.17;2.07;;;;;;;13.63;61.38;98723.81;8316517;28;20201;-87
2021/10/07 03:00:46;;;;;;;5.43;1.80;;;;;;;13.73;61.28;98732.94;8316301;28;20201;-88
2021/10/07 03:04:53;;;;;;;3.23;1.50;;;;;;;13.76;60.76;98734.53;8324351;28;20275;-88
2021/10/07 03:08:58;;;;;;;10.33;5.20;;;;;;;13.80;61.01;98734.34;8323482;28;20500;-88
2021/10/07 03:13:01;;;;;;;4.30;2.80;;;;;;;13.80;61.23;98728.28;8323016;28;20247;-88
2021/10/07 03:17:05;;;;;;;4.03;2.00;;;;;;;13.80;61.15;98736.09;8322000;28;20201;-89
2021/10/07 03:21:08;;;;;;;3.53;1.87;;;;;;;13.80;61.11;98734.34;8322113;28;20387;-91
2021/10/07 03:25:12;;;;;;;3.27;2.00;;;;;;;13.81;61.46;98741.22;8322596;28;20213;-92
2021/10/07 03:29:14;;;;;;;5.23;2.23;;;;;;;13.81;60.77;98748.22;8322475;28;20209;-91
2021/10/07 03:33:19;;;;;;;6.57;2.73;;;;;;;13.85;60.78;98740.19;8322533;28;20224;-91
2021/10/07 03:37:22;;;;;;;4.53;2.40;;;;;;;13.74;60.99;98733.78;8322039;28;20208;-91
2021/10/07 03:41:24;;;;;;;4.57;2.37;;;;;;;13.82;60.93;98753.34;8321931;28;20410;-92
2021/10/07 03:45:27;;;;;;;5.10;2.50;;;;;;;13.78;60.97;98746.56;8321848;28;20373;-93
2021/10/07 03:49:32;;;;;;;6.20;2.70;;;;;;;13.79;60.92;98757.84;8322085;28;20208;-91
2021/10/07 03:53:35;;;;;;;5.30;2.60;;;;;;;13.79;60.78;98761.28;8321583;28;20201;-91
2021/10/07 03:57:37;;;;;;;5.47;2.33;;;;;;;13.77;60.72;98768.31;8321352;28;20200;-89
2021/10/07 04:01:40;;;;;;;4.30;2.20;;;;;;;13.82;60.67;98778.53;8321086;28;20221;-89
2021/10/07 04:05:45;;;;;;;7.37;2.50;;;;;;;13.76;60.95;98764.00;8321074;28;20578;-88
2021/10/07 04:09:48;;;;;;;4.90;2.07;;;;;;;13.67;61.39;98767.06;8320826;28;20201;-89
2021/10/07 04:13:51;;;;;;;4.07;2.10;;;;;;;13.73;61.31;98771.13;8320575;28;20240;-88
2021/10/07 04:17:54;;;;;;;3.47;2.20;;;;;;;13.69;61.00;98780.84;8320550;28;20205;-89
2021/10/07 04:21:58;;;;;;;5.43;2.17;;;;;;;13.69;60.80;98783.44;8320504;28;20232;-89
2021/10/07 04:26:01;;;;;;;4.87;2.70;;;;;;;13.66;60.91;98786.16;8320713;28;20205;-90
2021/10/07 04:30:06;;;;;;;4.80;2.80;;;;;;;13.60;60.77;98787.28;8324946;28;20201;-88
2021/10/07 04:34:09;;;;;;;5.87;2.90;;;;;;;13.62;60.56;98795.03;8319892;28;20197;-86
2021/10/07 04:38:13;;;;;;;5.60;2.33;;;;;;;13.58;60.79;98798.69;8319581;28;20205;-87
2021/10/07 04:42:16;;;;;;;7.30;3.10;;;;;;;13.53;60.73;98798.03;8319314;28;20428;-87
2021/10/07 04:46:22;;;;;;;4.37;2.60;;;;;;;13.47;61.03;98802.56;8319402;28;20307;-87
2021/10/07 04:50:24;;;;;;;3.30;2.80;;;;;;;13.55;60.54;98807.44;8319306;28;20228;-88
2021/10/07 04:54:29;;;;;;;7.80;3.57;;;;;;;13.53;60.19;98805.84;8319158;28;20201;-88
2021/10/07 04:58:32;;;;;;;5.27;3.07;;;;;;;13.44;60.77;98810.53;8319256;28;20211;-86
2021/10/07 05:02:36;;;;;;;5.20;3.20;;;;;;;13.45;60.57;98811.38;8319472;28;20236;-89
2021/10/07 05:06:39;;;;;;;5.70;3.00;;;;;;;13.39;60.47;98812.47;8325089;28;20197;-89
2021/10/07 05:10:44;;;;;;;5.07;2.77;;;;;;;13.39;60.74;98822.88;8337012;28;20217;-89
2021/10/07 05:14:47;;;;;;;5.37;2.60;;;;;;;13.42;60.65;98829.69;8351715;28;20212;-89
2021/10/07 05:18:50;;;;;;;6.43;3.20;;;;;;;13.38;61.05;98833.34;8351607;28;20207;-91
2021/10/07 05:22:53;;;;;;;6.17;3.00;;;;;;;13.35;60.66;98833.50;8351393;28;20232;-90
2021/10/07 05:26:57;;;;;;;4.40;2.63;;;;;;;13.32;60.97;98821.44;8350112;28;20483;-85
2021/10/07 05:31:00;;;;;;;8.80;2.93;;;;;;;13.31;60.84;98830.16;8350898;28;20207;-90
2021/10/07 05:35:04;;;;;;;6.93;2.40;;;;;;;13.33;60.94;98827.47;8351393;28;20211;-90
2021/10/07 05:39:07;;;;;;;8.07;2.97;;;;;;;13.30;60.55;98836.25;8345091;28;20209;-89
2021/10/07 05:43:11;;;;;;;10.37;2.97;;;;;;;13.30;60.38;98836.25;8318120;28;20231;-90
2021/10/07 05:47:14;;;;;;;6.63;3.10;;;;;;;13.30;60.69;98842.31;8322799;28;20515;-89
2021/10/07 05:51:18;;;;;;;6.87;2.67;;;;;;;13.27;61.09;98854.59;8319098;28;20383;-88
2021/10/07 05:55:21;;;;;;;5.43;3.00;;;;;;;13.33;61.00;98867.38;8317603;28;20208;-88
2021/10/07 05:59:25;;;;;;;8.00;3.07;;;;;;;13.34;60.85;98860.41;8317312;28;20340;-87
2021/10/07 06:03:28;;;;;;;10.73;3.00;;;;;;;13.34;60.57;98857.81;8317089;28;20229;-89
2021/10/07 06:07:31;;;;;;;4.30;2.20;;;;;;;13.42;60.73;98853.09;8317159;28;20500;-88
2021/10/07 06:11:35;;;;;;;7.67;2.53;;;;;;;13.42;60.88;98853.09;8316583;28;20248;-88
2021/10/07 06:15:39;;;;;;;6.70;2.63;;;;;;;13.39;61.50;98850.66;8316940;28;20205;-87
2021/10/07 06:19:46;;;;;;;6.07;2.57;;;;;;;13.48;61.08;98853.72;8316999;28;20219;-88
2021/10/07 06:23:49;;;;;;;6.87;2.57;;;;;;;13.59;61.04;98865.41;8316658;28;20236;-88
2021/10/07 06:28:11;;;;;;;11.37;3.30;;;;;;;13.58;61.38;98875.00;8317053;28;20227;-88
2021/10/07 06:32:16;;;;;;;6.90;3.07;;;;;;;13.56;61.59;98874.22;8316662;28;20200;-88
2021/10/07 06:36:19;;;;;;;4.90;3.03;;;;;;;13.60;61.79;98888.78;8316865;28;20211;-88
2021/10/07 06:40:22;;;;;;;6.13;3.07;;;;;;;13.62;61.63;98886.97;8323013;28;20216;-88
2021/10/07 06:44:28;;;;;;;8.07;3.53;;;;;;;13.61;61.50;98892.22;8323153;28;20238;-88
2021/10/07 06:48:33;;;;;;;7.93;4.00;;;;;;;13.81;61.61;98901.81;8323248;28;20211;-89
2021/10/07 06:52:37;;;;;;;8.13;5.13;;;;;;;13.92;61.23;98904.81;8322749;28;20212;-89
2021/10/07 06:56:40;;;;;;;21.10;5.67;;;;;;;13.95;61.22;98896.84;8322745;28;20200;-88
2021/10/07 07:00:43;;;;;;;14.67;4.90;;;;;;;13.92;61.59;98915.22;8322625;28;20201;-88
2021/10/07 07:04:47;;;;;;;15.30;5.70;;;;;;;13.96;61.11;98923.75;8322831;28;20311;-89
2021/10/07 07:08:54;;;;;;;7.87;4.93;;;;;;;13.97;60.93;98928.84;8322700;28;20400;-87
2021/10/07 07:12:57;;;;;;;5.63;4.53;;;;;;;14.23;59.82;98925.13;8322877;28;20535;-91
2021/10/07 07:17:00;;;;;;;7.17;4.50;;;;;;;14.37;58.84;98919.31;8322815;28;20205;-90
2021/10/07 07:21:11;;;;;;;12.07;5.03;;;;;;;14.50;59.22;98916.16;8322664;28;20213;-89
2021/10/07 07:25:14;;;;;;;6.13;4.70;;;;;;;14.55;59.00;98920.25;8322137;28;20228;-89
2021/10/07 07:29:17;;;;;;;5.57;4.20;;;;;;;14.66;58.33;98918.03;8322281;28;20205;-90
2021/10/07 07:33:24;;;;;;;6.40;4.67;;;;;;;14.65;58.17;98920.72;8321976;28;20288;-90
2021/10/07 07:37:28;;;;;;;6.63;4.23;;;;;;;15.41;56.32;98921.44;8322052;28;20205;-90
2021/10/07 07:41:31;;;;;;;6.00;4.30;;;;;;;15.23;56.82;98922.31;8321623;28;20209;-90
2021/10/07 07:45:34;;;;;;;6.27;4.80;;;;;;;15.23;56.86;98922.31;8322112;28;20665;-90
2021/10/07 07:49:38;;;;;;;5.77;4.47;;;;;;;15.33;56.46;98931.41;8321297;28;20388;-89
2021/10/07 07:53:42;;;;;;;7.93;4.67;;;;;;;15.40;55.94;98924.13;8322108;28;20386;-89
2021/10/07 07:57:46;;;;;;;6.33;4.10;;;;;;;16.10;53.20;98930.22;8324944;28;20522;-89
2021/10/07 08:01:50;;;;;;;6.77;4.37;;;;;;;16.03;52.71;98934.94;8321614;28;20548;-88
2021/10/07 08:05:53;;;;;;;6.17;3.80;;;;;;;16.27;52.50;98942.41;8320455;28;20225;-87
2021/10/07 08:09:58;;;;;;;8.03;3.80;;;;;;;16.04;52.84;98938.38;8320466;28;20213;-89
2021/10/07 08:14:02;;;;;;;6.80;3.57;;;;;;;15.90;54.05;98957.38;8320245;28;20229;-88
2021/10/07 08:18:06;;;;;;;7.20;4.07;;;;;;;15.61;54.38;98954.41;8320474;28;20208;-88
2021/10/07 08:22:09;;;;;;;5.40;3.70;;;;;;;15.48;54.38;98949.84;8320464;28;20493;-89
2021/10/07 08:26:13;;;;;;;6.23;3.53;;;;;;;15.49;54.32;98960.22;8320451;28;20240;-88
2021/10/07 08:30:17;;;;;;;7.10;4.23;;;;;;;15.39;54.14;98965.03;8325695;28;20209;-88
2021/10/07 08:34:20;;;;;;;5.93;3.90;;;;;;;15.53;54.36;98969.59;8324663;28;20242;-89
2021/10/07 08:38:26;;;;;;;7.43;4.40;;;;;;;15.37;54.27;98979.09;8321232;28;20205;-91
2021/10/07 08:42:31;;;;;;;6.27;3.90;;;;;;;15.62;54.45;98970.91;8321035;28;20480;-91
2021/10/07 08:46:34;;;;;;;9.03;4.00;;;;;;;15.78;54.72;98971.03;8320498;28;20263;-90
2021/10/07 08:50:37;;;;;;;8.33;4.17;;;;;;;15.70;54.53;98979.22;8321736;28;20201;-88
2021/10/07 08:54:40;;;;;;;8.40;4.73;;;;;;;15.72;53.77;98981.75;8320798;28;20212;-90
2021/10/07 08:58:44;;;;;;;6.90;4.03;;;;;;;15.75;54.44;98981.66;8321383;28;20209;-88
2021/10/07 09:02:47;;;;;;;5.90;3.77;;;;;;;15.72;54.79;98987.81;8321781;28;20209;-82
2021/10/07 09:06:51;;;;;;;5.97;3.63;;;;;;;15.58;53.96;98996.31;8321554;28;20224;-83
2021/10/07 09:11:00;;;;;;;6.77;3.73;;;;;;;15.55;54.02;98998.25;8321675;28;20241;-90
2021/10/07 09:15:13;;;;;;;5.67;3.70;;;;;;;15.30;54.54;99003.78;8322367;28;20205;-87
2021/10/07 09:19:17;;;;;;;6.53;4.10;;;;;;;15.17;54.91;98999.16;8320661;28;20205;-86
2021/10/07 09:23:22;;;;;;;6.03;3.87;;;;;;;14.94;56.08;99005.41;8320204;28;20205;-87
2021/10/07 09:27:27;;;;;;;13.70;3.77;;;;;;;15.68;59.66;99012.38;8320230;28;20259;-81
2021/10/07 09:31:33;;;;;;;4.03;3.40;;;;;;;14.73;55.68;99006.38;8319868;28;20208;-80
2021/10/07 09:35:37;;;;;;;8.30;2.60;;;;;;;16.33;54.01;98994.34;8319591;28;20204;-81
2021/10/07 09:39:47;;;;;;;5.43;2.67;;;;;;;16.27;55.08;98997.31;8319057;28;20208;-82
2021/10/07 09:43:54;;;;;;;8.97;3.67;;;;;;;16.14;53.22;99002.28;8323350;28;20235;-92
2021/10/07 09:48:01;;;;;;;7.03;3.40;;;;;;;16.22;51.49;99002.78;8321499;28;20501;-89
2021/10/07 09:52:06;;;;;;;5.83;2.97;;;;;;;16.57;51.05;99007.94;8321396;28;20201;-93
2021/10/07 09:56:24;;;;;;;6.30;3.70;;;;;;;16.52;50.20;98999.47;8321969;28;20205;-93
2021/10/07 10:00:29;;;;;;;6.27;3.27;;;;;;;16.73;50.43;98991.44;8321837;28;20201;-89
2021/10/07 10:04:37;;;;;;;5.07;3.27;;;;;;;17.06;49.36;99001.03;8325325;28;20228;-92
2021/10/07 10:08:40;;;;;;;7.77;3.10;;;;;;;16.95;49.87;99004.25;8326389;28;20211;-90
2021/10/07 10:12:44;;;;;;;5.87;4.03;;;;;;;17.14;49.54;98991.84;8321865;28;20248;-90
2021/10/07 10:16:47;;;;;;;5.30;2.77;;;;;;;17.06;49.75;98994.06;8321886;28;20209;-92
2021/10/07 10:20:53;;;;;;;8.30;3.43;;;;;;;16.75;50.68;99000.03;8320312;28;20208;-92
2021/10/07 10:24:59;;;;;;;7.20;3.50;;;;;;;16.79;50.08;98994.59;8322457;28;20224;-90
2021/10/07 10:29:02;;;;;;;4.90;2.97;;;;;;;17.97;47.41;98992.44;8323404;28;20205;-93
2021/10/07 10:33:05;;;;;;;5.10;3.20;;;;;;;16.93;48.15;98998.25;8327543;28;20212;-91
2021/10/07 10:37:10;;;;;;;3.60;2.50;;;;;;;17.52;47.79;98996.72;8325382;28;20212;-94
2021/10/07 10:41:13;;;;;;;3.37;1.80;;;;;;;17.77;44.25;98988.31;8322198;28;20216;-94
2021/10/07 10:45:16;;;;;;;4.67;2.50;;;;;;;17.56;44.74;98998.25;8329495;28;20276;-90
2021/10/07 10:49:18;;;;;;;4.73;2.20;;;;;;;18.29;44.38;98994.06;8329077;28;20213;-95
2021/10/07 10:53:23;;;;;;;4.20;1.90;;;;;;;18.39;44.35;98990.00;8318322;28;20205;-95
2021/10/07 10:57:32;;;;;;;3.53;2.00;;;;;;;18.71;42.40;98997.66;8318793;28;20497;-95
2021/10/07 11:01:35;;;;;;;3.47;1.67;;;;;;;18.92;42.82;98990.28;8318927;28;20209;-93
2021/10/07 11:05:42;;;;;;;2.37;1.70;;;;;;;19.43;42.97;98993.16;8320696;28;20228;-93
2021/10/07 11:10:01;;;;;;;4.67;2.10;;;;;;;19.24;42.45;98990.88;8330005;28;20212;-93
2021/10/07 11:14:04;;;;;;;7.03;2.07;;;;;;;19.84;42.01;98989.66;8335009;28;20297;-93
2021/10/07 11:18:07;;;;;;;2.53;1.30;;;;;;;19.55;41.38;98988.88;8319204;28;20228;-95
2021/10/07 11:22:10;;;;;;;2.77;1.40;;;;;;;19.42;41.25;98985.38;8322326;28;20201;-95
2021/10/07 11:26:15;;;;;;;3.13;1.40;;;;;;;19.78;40.00;98984.81;8326005;28;20228;-93
2021/10/07 11:30:20;;;;;;;2.83;1.53;;;;;;;18.58;42.08;98987.06;8328472;28;20208;-94
2021/10/07 11:34:23;;;;;;;4.63;1.47;;;;;;;18.92;41.98;98985.03;8330018;28;20228;-93
2021/10/07 11:38:26;;;;;;;4.03;1.73;;;;;;;18.83;41.28;98975.09;8330424;28;20211;-93
2021/10/07 11:42:40;;;;;;;2.93;1.30;;;;;;;19.12;42.45;98981.16;8329343;28;20201;-93
2021/10/07 11:46:43;;;;;;;3.97;1.60;;;;;;;18.46;42.16;98977.34;8329892;28;20322;-93
2021/10/07 11:50:48;;;;;;;2.40;1.30;;;;;;;19.13;40.79;98967.06;8329198;28;20365;-93
2021/10/07 11:54:51;;;;;;;5.40;1.70;;;;;;;19.14;41.85;98974.03;8329307;28;20213;-93
2021/10/07 11:58:58;;;;;;;3.93;1.20;;;;;;;19.16;39.56;98977.38;8329324;28;20221;-93
2021/10/07 12:03:19;;;;;;;2.17;1.23;;;;;;;18.94;40.54;98972.66;8324106;28;20228;-93
2021/10/07 12:07:23;;;;;;;3.50;1.20;;;;;;;19.11;41.81;98977.69;8327695;28;20517;-94
2021/10/07 12:11:28;;;;;;;3.67;1.10;;;;;;;18.78;40.86;98967.50;8326404;28;20241;-94
2021/10/07 12:15:32;;;;;;;1.53;0.90;;;;;;;18.88;42.12;98968.63;8327018;28;20212;-94
2021/10/07 12:19:35;;;;;;;2.23;1.00;;;;;;;18.86;42.28;98969.66;8330394;28;20245;-93
2021/10/07 12:23:53;;;;;;;1.90;0.93;;;;;;;18.91;41.14;98964.97;8331223;28;20213;-90
2021/10/07 12:28:03;;;;;;;2.83;1.10;;;;;;;18.00;43.52;98967.81;8330942;28;20225;-93
2021/10/07 12:32:12;;;;;;;4.17;1.20;;;;;;;18.12;43.00;98963.63;8330428;28;20211;-95
2021/10/07 12:36:15;;;;;;;1.60;0.90;;;;;;;18.19;44.47;98958.88;8328697;28;20208;-93
2021/10/07 12:40:27;;;;;;;3.40;1.20;;;;;;;18.27;44.46;98964.50;8330079;28;20204;-93
2021/10/07 12:44:32;;;;;;;1.53;0.90;;;;;;;18.15;44.84;98966.91;8330421;28;20205;-94
2021/10/07 12:48:54;;;;;;;1.47;1.03;;;;;;;18.22;45.12;98963.91;8329871;28;20201;-94
2021/10/07 12:52:58;;;;;;;2.00;1.00;;;;;;;18.64;44.15;98965.72;8328779;28;20212;-93
2021/10/07 12:57:02;;;;;;;2.43;1.27;;;;;;;19.14;42.29;98961.72;8329733;28;20205;-93
2021/10/07 13:01:12;;;;;;;1.60;0.90;;;;;;;19.80;41.28;98961.03;8326378;28;20201;-92
2021/10/07 13:05:18;;;;;;;1.80;1.00;;;;;;;19.29;39.55;98957.28;8327795;28;20440;-94
2021/10/07 13:09:21;;;;;;;1.10;0.83;;;;;;;19.24;41.71;98959.34;8326073;28;20200;-93
2021/10/07 13:13:24;;;;;;;2.30;1.13;;;;;;;18.80;42.73;98962.16;8326156;28;20241;-94
2021/10/07 13:17:27;;;;;;;2.27;1.20;;;;;;;18.42;44.85;98967.97;8324353;28;20201;-94
2021/10/07 13:21:32;;;;;;;3.37;1.30;;;;;;;18.49;44.43;98964.03;8325194;28;20205;-94
2021/10/07 13:25:39;;;;;;;2.80;1.10;;;;;;;18.46;44.18;98965.06;8328191;28;20308;-93
2021/10/07 13:29:42;;;;;;;2.20;1.10;;;;;;;18.51;44.43;98968.25;8323445;28;20207;-94
2021/10/07 13:33:45;;;;;;;1.73;1.17;;;;;;;18.60;43.93;98974.72;8325015;28;20215;-93
2021/10/07 13:37:51;;;;;;;3.23;1.10;;;;;;;18.82;43.46;98976.88;8330688;28;20457;-93
2021/10/07 13:41:53;;;;;;;2.50;1.07;;;;;;;18.96;43.45;98976.00;8325709;28;20197;-94
2021/10/07 13:45:57;;;;;;;3.47;1.20;;;;;;;20.03;41.80;98977.88;8325064;28;20228;-95
2021/10/07 13:50:00;;;;;;;1.40;1.07;;;;;;;19.53;42.13;98981.13;8334231;28;20223;-93
2021/10/07 13:54:04;;;;;;;3.10;1.20;;;;;;;18.92;43.29;98977.16;8332142;28;20213;-95
2021/10/07 13:58:07;;;;;;;2.20;1.20;;;;;;;18.59;44.37;98985.31;8328365;28;20205;-94
2021/10/07 14:02:10;;;;;;;2.33;1.23;;;;;;;18.46;44.02;98980.78;8326644;28;20201;-96
2021/10/07 14:06:13;;;;;;;1.73;1.07;;;;;;;18.53;44.32;98974.25;8325255;28;20228;-94
2021/10/07 14:10:17;;;;;;;2.47;1.53;;;;;;;19.06;43.56;98976.31;8325826;28;20221;-94
2021/10/07 14:14:20;;;;;;;2.87;1.30;;;;;;;19.39;43.24;98985.59;8325911;28;20236;-94
2021/10/07 14:18:23;;;;;;;3.07;1.17;;;;;;;19.01;42.79;98981.00;8326470;28;20208;-94
2021/10/07 14:22:26;;;;;;;1.80;1.10;;;;;;;18.93;42.14;98981.47;8346783;28;20200;-93
2021/10/07 14:26:31;;;;;;;3.60;1.07;;;;;;;18.91;42.68;98986.81;8357984;28;20228;-94
2021/10/07 14:30:35;;;;;;;1.73;1.10;;;;;;;18.92;41.97;98982.41;8357986;28;20208;-95
2021/10/07 14:34:39;;;;;;;1.37;0.90;;;;;;;18.92;41.68;98985.88;8342416;28;20197;-94
2021/10/07 14:38:44;;;;;;;1.33;0.90;;;;;;;18.80;42.32;98983.16;8335828;28;20201;-94
2021/10/07 14:42:49;;;;;;;1.57;0.97;;;;;;;18.20;43.61;98989.38;8340344;28;20204;-95
2021/10/07 14:46:52;;;;;;;4.20;1.00;;;;;;;18.22;43.01;98985.75;8337172;28;20221;-95
2021/10/07 14:50:55;;;;;;;1.80;1.20;;;;;;;18.08;43.18;98983.09;8332887;28;20216;-96
2021/10/07 14:54:58;;;;;;;1.87;1.00;;;;;;;18.12;43.98;98997.69;8345478;28;20203;-95
2021/10/07 14:59:02;;;;;;;2.10;1.00;;;;;;;17.86;44.30;98989.59;8350951;28;20197;-94
2021/10/07 15:03:06;;;;;;;2.40;1.10;;;;;;;17.97;44.69;98983.72;8364121;28;20207;-91
2021/10/07 15:07:11;;;;;;;1.13;0.90;;;;;;;17.88;44.89;98990.34;8363030;28;20294;-92
2021/10/07 15:11:14;;;;;;;3.33;1.13;;;;;;;17.62;45.33;98986.56;8362354;28;20524;-91
2021/10/07 15:15:18;;;;;;;4.03;1.23;;;;;;;17.70;45.19;98983.50;8362279;28;20204;-92
2021/10/07 15:19:21;;;;;;;1.73;1.00;;;;;;;17.64;45.16;98984.72;8362965;28;20495;-91
2021/10/07 15:23:24;;;;;;;4.40;1.27;;;;;;;17.69;45.12;98994.94;8362978;28;20204;-92
2021/10/07 15:27:27;;;;;;;4.47;1.10;;;;;;;17.49;44.87;98996.06;8362505;28;20232;-92
2021/10/07 15:31:31;;;;;;;1.20;0.90;;;;;;;17.44;44.70;98985.84;8363275;28;20204;-92
2021/10/07 15:35:35;;;;;;;1.67;0.97;;;;;;;17.48;44.78;98989.16;8359547;28;20491;-92
2021/10/07 15:39:38;;;;;;;1.93;1.17;;;;;;;17.55;45.38;98987.84;8345709;28;20201;-92
2021/10/07 15:43:41;;;;;;;1.87;1.00;;;;;;;17.69;44.88;98984.47;8346345;28;20208;-92
2021/10/07 15:47:45;;;;;;;1.80;1.00;;;;;;;17.65;43.86;98977.69;8357822;28;20292;-94
2021/10/07 15:51:50;;;;;;;4.47;0.90;;;;;;;17.76;44.36;98973.53;8346210;28;20491;-94
2021/10/07 15:55:54;;;;;;;1.80;1.00;;;;;;;17.60;44.60;98985.81;8323525;28;20197;-94
2021/10/07 15:59:57;;;;;;;1.83;1.23;;;;;;;17.73;44.38;98984.19;8323612;28;20205;-95
2021/10/07 16:04:01;;;;;;;3.77;1.03;;;;;;;17.76;43.98;98989.25;8323534;28;20526;-94
2021/10/07 16:08:05;;;;;;;1.80;0.87;;;;;;;17.71;44.65;98982.59;8324174;28;20235;-94
2021/10/07 16:12:08;;;;;;;4.40;1.33;;;;;;;17.53;45.47;98993.16;8322769;28;20304;-95
2021/10/07 16:16:11;;;;;;;3.17;1.23;;;;;;;17.46;45.72;98994.47;8325604;28;20215;-96
2021/10/07 16:20:15;;;;;;;1.90;1.20;;;;;;;17.33;46.38;98999.53;8323689;28;20327;-95
2021/10/07 16:24:18;;;;;;;5.90;1.00;;;;;;;17.30;46.77;98999.69;8326558;28;20263;-93
2021/10/07 16:28:24;;;;;;;2.47;1.20;;;;;;;17.30;47.38;99001.47;8327937;28;20221;-94
2021/10/07 16:32:27;;;;;;;10.77;7.80;;;;;;;17.18;48.21;99003.84;8326785;28;20212;-94
2021/10/07 16:36:31;;;;;;;7.70;6.57;;;;;;;17.28;48.51;98996.31;8321751;28;20319;-94
2021/10/07 16:40:34;;;;;;;8.30;6.93;;;;;;;17.35;48.46;99009.94;8321495;28;20197;-93
2021/10/07 16:44:37;;;;;;;9.83;7.37;;;;;;;17.26;48.46;99011.25;8305624;28;20255;-92
2021/10/07 16:48:40;;;;;;;6.30;5.20;;;;;;;17.21;48.88;99015.94;8321797;28;20229;-94
2021/10/07 16:52:44;;;;;;;4.93;2.30;;;;;;;17.14;48.74;99017.19;8321827;28;20212;-95
2021/10/07 16:56:47;;;;;;;25.87;2.93;;;;;;;17.11;50.09;99025.19;8321357;28;20473;-94
2021/10/07 17:00:50;;;;;;;2.77;1.47;;;;;;;17.04;49.61;99023.81;8319131;28;20524;-88
2021/10/07 17:04:53;;;;;;;2.53;1.60;;;;;;;16.96;49.71;99025.09;8319868;28;20233;-89
2021/10/07 17:09:00;;;;;;;9.50;4.77;;;;;;;16.90;49.69;99028.03;8318811;28;20231;-87
2021/10/07 17:13:03;;;;;;;4.17;2.33;;;;;;;16.84;49.95;99035.38;8320155;28;20433;-89
2021/10/07 17:17:06;;;;;;;2.50;1.57;;;;;;;16.79;50.23;99036.44;8320304;28;20204;-89
2021/10/07 17:21:09;;;;;;;11.40;1.67;;;;;;;16.90;49.65;99038.50;8319667;28;20208;-91
2021/10/07 17:25:15;;;;;;;4.20;1.40;;;;;;;16.92;49.51;99033.19;8319961;28;20217;-90
2021/10/07 17:29:18;;;;;;;5.23;1.70;;;;;;;16.81;50.29;99028.47;8319884;28;20225;-91
2021/10/07 17:33:21;;;;;;;2.50;1.80;;;;;;;16.77;50.41;99034.81;8320356;28;20200;-96
2021/10/07 17:37:24;;;;;;;5.10;2.50;;;;;;;16.66;51.27;99035.41;8319673;28;20209;-90
2021/10/07 17:41:28;;;;;;;14.27;8.20;;;;;;;16.54;51.23;99034.25;8319580;28;20197;-93
2021/10/07 17:45:31;;;;;;;12.63;8.30;;;;;;;16.28;51.60;99032.97;8319616;28;20216;-96
2021/10/07 17:49:34;;;;;;;7.53;6.80;;;;;;;16.22;52.69;99048.94;8321267;28;20232;-93
2021/10/07 17:53:37;;;;;;;6.83;5.60;;;;;;;16.21;52.99;99042.88;8320032;28;20219;-92
2021/10/07 17:57:42;;;;;;;7.67;5.73;;;;;;;16.02;52.86;99049.97;8319303;28;20496;-90
2021/10/07 18:01:45;;;;;;;7.43;5.47;;;;;;;16.07;53.17;99045.34;8319159;28;20204;-91
2021/10/07 18:05:48;;;;;;;9.20;3.80;;;;;;;15.81;53.83;99050.09;8318937;28;20197;-92
2021/10/07 18:09:51;;;;;;;5.33;4.23;;;;;;;15.72;54.00;99047.88;8319418;28;20400;-93
2021/10/07 18:13:55;;;;;;;24.40;21.83;;;;;;;15.74;54.57;99053.91;8320062;28;20540;-93
2021/10/07 18:17:58;;;;;;;6.47;3.90;;;;;;;15.70;54.40;99062.78;8319074;28;20201;-95
2021/10/07 18:22:02;;;;;;;3.73;2.60;;;;;;;15.67;54.76;99068.16;8320116;28;20205;-96
2021/10/07 18:26:05;;;;;;;5.17;4.67;;;;;;;15.66;54.62;99063.00;8322078;28;20205;-96
2021/10/07 18:30:24;;;;;;;7.13;5.60;;;;;;;15.68;54.51;99071.63;8319899;28;20201;-96
2021/10/07 18:34:27;;;;;;;4.80;4.30;;;;;;;15.66;54.74;99070.84;8319636;28;20209;-92
2021/10/07 18:38:30;;;;;;;19.90;4.70;;;;;;;17.16;63.89;99070.28;8316931;28;20522;-83
2021/10/07 18:42:33;;;;;;;19.73;4.40;;;;;;;17.76;56.51;99075.72;8316322;28;20541;-84
2021/10/07 18:46:37;;;;;;;6.70;3.70;;;;;;;16.63;53.26;99074.75;8332629;28;20380;-95
2021/10/07 18:50:41;;;;;;;5.73;4.00;;;;;;;16.26;54.28;99067.94;8331865;28;20199;-96
2021/10/07 18:54:44;;;;;;;7.13;4.30;;;;;;;16.12;54.17;99059.03;8334897;28;20202;-96
2021/10/07 18:58:47;;;;;;;6.10;4.03;;;;;;;15.97;54.41;99058.03;8335241;28;20193;-95
2021/10/07 19:02:52;;;;;;;5.33;4.00;;;;;;;15.90;54.87;99067.09;8334427;28;20207;-94
2021/10/07 19:06:55;;;;;;;7.17;4.03;;;;;;;15.87;55.00;99063.78;8324437;28;20451;-89
2021/10/07 19:10:58;;;;;;;5.27;4.30;;;;;;;16.22;53.44;99060.28;8322534;28;20709;-91
2021/10/07 19:15:01;;;;;;;7.67;3.90;;;;;;;15.75;54.97;99062.59;8328700;28;20380;-92